sensor_id;sensor_type;location;lat;lon;timestamp;pressure;altitude;pressure_sealevel;temperature;humidity
49835;BME280;35729;52.090;13.162;2023-02-03T00:00:32;101663.91;;;1.55;97.06
49835;BME280;35729;52.090;13.162;2023-02-03T00:03:00;101653.56;;;1.55;97.07
49835;BME280;35729;52.090;13.162;2023-02-03T00:05:30;101652.69;;;1.55;97.22
49835;BME280;35729;52.090;13.162;2023-02-03T00:07:59;101644.06;;;1.54;97.33
49835;BME280;35729;52.090;13.162;2023-02-03T00:10:27;101632.00;;;1.55;97.78
49835;BME280;35729;52.090;13.162;2023-02-03T00:12:56;101636.38;;;1.57;97.64
49835;BME280;35729;52.090;13.162;2023-02-03T00:15:24;101627.69;;;1.55;97.92
49835;BME280;35729;52.090;13.162;2023-02-03T00:17:56;101626.00;;;1.56;98.13
49835;BME280;35729;52.090;13.162;2023-02-03T00:20:25;101617.34;;;1.55;98.48
49835;BME280;35729;52.090;13.162;2023-02-03T00:22:53;101608.75;;;1.56;98.29
49835;BME280;35729;52.090;13.162;2023-02-03T00:25:22;101602.72;;;1.56;98.50
49835;BME280;35729;52.090;13.162;2023-02-03T00:27:50;101601.88;;;1.57;98.99
49835;BME280;35729;52.090;13.162;2023-02-03T00:30:19;101591.41;;;1.52;99.20
49835;BME280;35729;52.090;13.162;2023-02-03T00:32:47;101594.13;;;1.57;99.04
49835;BME280;35729;52.090;13.162;2023-02-03T00:35:18;101582.88;;;1.56;99.77
49835;BME280;35729;52.090;13.162;2023-02-03T00:37:50;101566.53;;;1.57;99.60
49835;BME280;35729;52.090;13.162;2023-02-03T00:40:20;101556.19;;;1.57;99.95
49835;BME280;35729;52.090;13.162;2023-02-03T00:42:49;101547.56;;;1.57;100.00
49835;BME280;35729;52.090;13.162;2023-02-03T00:45:18;101542.41;;;1.57;100.00
49835;BME280;35729;52.090;13.162;2023-02-03T00:47:46;101539.81;;;1.57;100.00
49835;BME280;35729;52.090;13.162;2023-02-03T00:50:18;101536.38;;;1.58;100.00
49835;BME280;35729;52.090;13.162;2023-02-03T00:52:47;101543.25;;;1.57;100.00
49835;BME280;35729;52.090;13.162;2023-02-03T00:55:15;101523.44;;;1.58;100.00
49835;BME280;35729;52.090;13.162;2023-02-03T00:57:44;101513.09;;;1.58;100.00
49835;BME280;35729;52.090;13.162;2023-02-03T01:00:13;101507.09;;;1.59;100.00
49835;BME280;35729;52.090;13.162;2023-02-03T01:02:42;101517.44;;;1.59;100.00
49835;BME280;35729;52.090;13.162;2023-02-03T01:05:10;101523.50;;;1.59;100.00
49835;BME280;35729;52.090;13.162;2023-02-03T01:07:41;101514.03;;;1.60;100.00
49835;BME280;35729;52.090;13.162;2023-02-03T01:10:10;101508.81;;;1.58;100.00
49835;BME280;35729;52.090;13.162;2023-02-03T01:12:39;101504.50;;;1.59;100.00
49835;BME280;35729;52.090;13.162;2023-02-03T01:15:08;101493.28;;;1.58;100.00
49835;BME280;35729;52.090;13.162;2023-02-03T01:17:36;101486.34;;;1.57;100.00
49835;BME280;35729;52.090;13.162;2023-02-03T01:20:06;101487.19;;;1.56;100.00
49835;BME280;35729;52.090;13.162;2023-02-03T01:22:36;101481.16;;;1.56;100.00
49835;BME280;35729;52.090;13.162;2023-02-03T01:25:08;101481.13;;;1.54;100.00
49835;BME280;35729;52.090;13.162;2023-02-03T01:27:36;101469.00;;;1.53;100.00
49835;BME280;35729;52.090;13.162;2023-02-03T01:30:05;101464.66;;;1.52;100.00
49835;BME280;35729;52.090;13.162;2023-02-03T01:32:34;101461.22;;;1.52;100.00
49835;BME280;35729;52.090;13.162;2023-02-03T01:35:02;101447.41;;;1.51;100.00
49835;BME280;35729;52.090;13.162;2023-02-03T01:37:31;101453.41;;;1.50;100.00
49835;BME280;35729;52.090;13.162;2023-02-03T01:39:59;101448.19;;;1.49;100.00
49835;BME280;35729;52.090;13.162;2023-02-03T01:42:31;101437.69;;;1.42;100.00
49835;BME280;35729;52.090;13.162;2023-02-03T01:45:00;101449.81;;;1.45;100.00
49835;BME280;35729;52.090;13.162;2023-02-03T01:47:32;101439.41;;;1.42;100.00
49835;BME280;35729;52.090;13.162;2023-02-03T01:50:07;101444.53;;;1.40;100.00
49835;BME280;35729;52.090;13.162;2023-02-03T01:52:39;101423.75;;;1.37;100.00
49835;BME280;35729;52.090;13.162;2023-02-03T01:55:10;101411.63;;;1.35;100.00
49835;BME280;35729;52.090;13.162;2023-02-03T01:57:45;101390.88;;;1.32;100.00
49835;BME280;35729;52.090;13.162;2023-02-03T02:00:15;101389.88;;;1.26;100.00
49835;BME280;35729;52.090;13.162;2023-02-03T02:02:45;101357.72;;;1.17;100.00
49835;BME280;35729;52.090;13.162;2023-02-03T02:05:19;101375.97;;;1.23;100.00
49835;BME280;35729;52.090;13.162;2023-02-03T02:07:51;101372.47;;;1.21;100.00
49835;BME280;35729;52.090;13.162;2023-02-03T02:10:20;101361.19;;;1.19;100.00
49835;BME280;35729;52.090;13.162;2023-02-03T02:12:51;101354.22;;;1.14;100.00
49835;BME280;35729;52.090;13.162;2023-02-03T02:15:26;101358.56;;;1.16;100.00
49835;BME280;35729;52.090;13.162;2023-02-03T02:18:12;101346.41;;;1.13;100.00
49835;BME280;35729;52.090;13.162;2023-02-03T02:21:11;101338.66;;;1.13;100.00
49835;BME280;35729;52.090;13.162;2023-02-03T02:26:55;101308.34;;;1.07;100.00
49835;BME280;35729;52.090;13.162;2023-02-03T02:29:58;101300.66;;;1.09;100.00
49835;BME280;35729;52.090;13.162;2023-02-03T02:32:44;101286.03;;;1.09;100.00
49835;BME280;35729;52.090;13.162;2023-02-03T02:35:22;101279.09;;;1.08;100.00
49835;BME280;35729;52.090;13.162;2023-02-03T02:38:00;101269.66;;;1.09;100.00
49835;BME280;35729;52.090;13.162;2023-02-03T02:40:34;101242.75;;;1.02;100.00
49835;BME280;35729;52.090;13.162;2023-02-03T02:43:07;101241.16;;;1.07;100.00
49835;BME280;35729;52.090;13.162;2023-02-03T02:45:44;101227.41;;;1.08;100.00
49835;BME280;35729;52.090;13.162;2023-02-03T02:48:21;101223.13;;;1.09;100.00
49835;BME280;35729;52.090;13.162;2023-02-03T02:50:54;101221.41;;;1.09;100.00
49835;BME280;35729;52.090;13.162;2023-02-03T02:53:25;101216.28;;;1.11;100.00
49835;BME280;35729;52.090;13.162;2023-02-03T02:55:56;101222.34;;;1.11;100.00
49835;BME280;35729;52.090;13.162;2023-02-03T02:58:27;101209.44;;;1.13;100.00
49835;BME280;35729;52.090;13.162;2023-02-03T03:01:06;101206.88;;;1.14;100.00
49835;BME280;35729;52.090;13.162;2023-02-03T03:03:38;101220.69;;;1.15;100.00
49835;BME280;35729;52.090;13.162;2023-02-03T03:06:12;101213.84;;;1.17;100.00
49835;BME280;35729;52.090;13.162;2023-02-03T03:08:46;101186.31;;;1.18;100.00
49835;BME280;35729;52.090;13.162;2023-02-03T03:11:17;101189.75;;;1.18;100.00
49835;BME280;35729;52.090;13.162;2023-02-03T03:13:48;101200.13;;;1.20;100.00
49835;BME280;35729;52.090;13.162;2023-02-03T03:16:22;101205.31;;;1.21;100.00
49835;BME280;35729;52.090;13.162;2023-02-03T03:18:56;101183.81;;;1.22;100.00
49835;BME280;35729;52.090;13.162;2023-02-03T03:21:28;101167.50;;;1.25;100.00
49835;BME280;35729;52.090;13.162;2023-02-03T03:24:04;101175.31;;;1.26;100.00
49835;BME280;35729;52.090;13.162;2023-02-03T03:26:37;101180.50;;;1.28;100.00
49835;BME280;35729;52.090;13.162;2023-02-03T03:29:13;101177.16;;;1.32;100.00
49835;BME280;35729;52.090;13.162;2023-02-03T03:31:44;101170.31;;;1.34;100.00
49835;BME280;35729;52.090;13.162;2023-02-03T03:34:16;101168.63;;;1.38;100.00
49835;BME280;35729;52.090;13.162;2023-02-03T03:36:47;101151.50;;;1.41;100.00
49835;BME280;35729;52.090;13.162;2023-02-03T03:39:23;101155.00;;;1.43;100.00
49835;BME280;35729;52.090;13.162;2023-02-03T03:42:06;101135.25;;;1.47;100.00
49835;BME280;35729;52.090;13.162;2023-02-03T03:44:44;101111.16;;;1.50;100.00
49835;BME280;35729;52.090;13.162;2023-02-03T03:47:18;101119.03;;;1.54;100.00
49835;BME280;35729;52.090;13.162;2023-02-03T03:49:54;101125.13;;;1.58;100.00
49835;BME280;35729;52.090;13.162;2023-02-03T03:52:26;101117.47;;;1.62;100.00
49835;BME280;35729;52.090;13.162;2023-02-03T03:54:58;101111.50;;;1.67;100.00
49835;BME280;35729;52.090;13.162;2023-02-03T03:57:31;101114.19;;;1.71;100.00
49835;BME280;35729;52.090;13.162;2023-02-03T04:00:04;101115.16;;;1.76;100.00
49835;BME280;35729;52.090;13.162;2023-02-03T04:02:37;101125.66;;;1.83;100.00
49835;BME280;35729;52.090;13.162;2023-02-03T04:05:09;101113.66;;;1.88;100.00
49835;BME280;35729;52.090;13.162;2023-02-03T04:07:41;101112.03;;;1.93;100.00
49835;BME280;35729;52.090;13.162;2023-02-03T04:10:17;101125.91;;;1.95;100.00
49835;BME280;35729;52.090;13.162;2023-02-03T04:12:48;101124.38;;;2.05;100.00
49835;BME280;35729;52.090;13.162;2023-02-03T04:15:16;101112.34;;;2.08;100.00
49835;BME280;35729;52.090;13.162;2023-02-03T04:17:45;101110.69;;;2.14;100.00
49835;BME280;35729;52.090;13.162;2023-02-03T04:20:16;101118.59;;;2.20;100.00
49835;BME280;35729;52.090;13.162;2023-02-03T04:22:45;101113.56;;;2.27;100.00
49835;BME280;35729;52.090;13.162;2023-02-03T04:25:14;101101.59;;;2.34;100.00
49835;BME280;35729;52.090;13.162;2023-02-03T04:27:43;101096.56;;;2.42;100.00
49835;BME280;35729;52.090;13.162;2023-02-03T04:30:12;101085.47;;;2.49;100.00
49835;BME280;35729;52.090;13.162;2023-02-03T04:32:42;101075.22;;;2.57;100.00
49835;BME280;35729;52.090;13.162;2023-02-03T04:35:11;101071.00;;;2.62;100.00
49835;BME280;35729;52.090;13.162;2023-02-03T04:37:42;101059.88;;;2.69;100.00
49835;BME280;35729;52.090;13.162;2023-02-03T04:40:11;101057.44;;;2.79;100.00
49835;BME280;35729;52.090;13.162;2023-02-03T04:42:40;101052.34;;;2.85;100.00
49835;BME280;35729;52.090;13.162;2023-02-03T04:45:10;101061.97;;;2.92;100.00
49835;BME280;35729;52.090;13.162;2023-02-03T04:47:39;101056.00;;;3.01;100.00
49835;BME280;35729;52.090;13.162;2023-02-03T04:50:08;101050.09;;;3.09;100.00
49835;BME280;35729;52.090;13.162;2023-02-03T04:52:37;101032.91;;;3.18;100.00
49835;BME280;35729;52.090;13.162;2023-02-03T04:55:08;101045.97;;;3.25;100.00
49835;BME280;35729;52.090;13.162;2023-02-03T04:57:37;101039.19;;;3.34;100.00
49835;BME280;35729;52.090;13.162;2023-02-03T05:00:07;101034.09;;;3.41;100.00
49835;BME280;35729;52.090;13.162;2023-02-03T05:02:35;101016.03;;;3.49;100.00
49835;BME280;35729;52.090;13.162;2023-02-03T05:05:05;101009.19;;;3.56;100.00
49835;BME280;35729;52.090;13.162;2023-02-03T05:07:33;101005.81;;;3.63;100.00
49835;BME280;35729;52.090;13.162;2023-02-03T05:10:03;101011.06;;;3.69;100.00
49835;BME280;35729;52.090;13.162;2023-02-03T05:12:34;101014.59;;;3.76;100.00
49835;BME280;35729;52.090;13.162;2023-02-03T05:15:03;101006.84;;;3.81;100.00
49835;BME280;35729;52.090;13.162;2023-02-03T05:17:32;101018.16;;;3.86;100.00
49835;BME280;35729;52.090;13.162;2023-02-03T05:20:03;101019.06;;;3.91;100.00
49835;BME280;35729;52.090;13.162;2023-02-03T05:22:32;101006.16;;;3.97;100.00
49835;BME280;35729;52.090;13.162;2023-02-03T05:25:01;101009.66;;;4.02;100.00
49835;BME280;35729;52.090;13.162;2023-02-03T05:27:30;100999.34;;;4.08;100.00
49835;BME280;35729;52.090;13.162;2023-02-03T05:30:01;100983.75;;;4.08;100.00
49835;BME280;35729;52.090;13.162;2023-02-03T05:32:30;100982.97;;;4.16;100.00
49835;BME280;35729;52.090;13.162;2023-02-03T05:34:58;100990.75;;;4.17;100.00
49835;BME280;35729;52.090;13.162;2023-02-03T05:37:27;100983.81;;;4.18;100.00
49835;BME280;35729;52.090;13.162;2023-02-03T05:39:55;100982.09;;;4.17;100.00
49835;BME280;35729;52.090;13.162;2023-02-03T05:42:48;100986.44;;;4.18;100.00
49835;BME280;35729;52.090;13.162;2023-02-03T05:45:16;100978.63;;;4.18;100.00
49835;BME280;35729;52.090;13.162;2023-02-03T05:47:45;100971.72;;;4.18;100.00
49835;BME280;35729;52.090;13.162;2023-02-03T05:50:14;100968.25;;;4.18;100.00
49835;BME280;35729;52.090;13.162;2023-02-03T05:52:42;100952.66;;;4.18;100.00
49835;BME280;35729;52.090;13.162;2023-02-03T05:55:11;100966.53;;;4.20;100.00
49835;BME280;35729;52.090;13.162;2023-02-03T05:57:40;100955.31;;;4.21;100.00
49835;BME280;35729;52.090;13.162;2023-02-03T06:00:10;100952.69;;;4.21;100.00
49835;BME280;35729;52.090;13.162;2023-02-03T06:02:42;100935.38;;;4.21;100.00
49835;BME280;35729;52.090;13.162;2023-02-03T06:05:10;100946.63;;;4.22;100.00
49835;BME280;35729;52.090;13.162;2023-02-03T06:07:39;100933.69;;;4.23;100.00
49835;BME280;35729;52.090;13.162;2023-02-03T06:10:08;100934.53;;;4.24;100.00
49835;BME280;35729;52.090;13.162;2023-02-03T06:12:37;100926.75;;;4.24;100.00
49835;BME280;35729;52.090;13.162;2023-02-03T06:15:06;100915.50;;;4.27;100.00
49835;BME280;35729;52.090;13.162;2023-02-03T06:17:36;100903.38;;;4.22;100.00
49835;BME280;35729;52.090;13.162;2023-02-03T06:20:11;100895.56;;;4.24;100.00
49835;BME280;35729;52.090;13.162;2023-02-03T06:22:40;100896.47;;;4.26;100.00
49835;BME280;35729;52.090;13.162;2023-02-03T06:25:08;100900.78;;;4.27;100.00
49835;BME280;35729;52.090;13.162;2023-02-03T06:27:38;100906.91;;;4.32;100.00
49835;BME280;35729;52.090;13.162;2023-02-03T06:30:08;100906.06;;;4.35;100.00
49835;BME280;35729;52.090;13.162;2023-02-03T06:32:38;100901.72;;;4.32;100.00
49835;BME280;35729;52.090;13.162;2023-02-03T06:35:09;100907.78;;;4.37;100.00
49835;BME280;35729;52.090;13.162;2023-02-03T06:37:37;100900.00;;;4.39;100.00
49835;BME280;35729;52.090;13.162;2023-02-03T06:40:07;100888.72;;;4.38;100.00
49835;BME280;35729;52.090;13.162;2023-02-03T06:42:37;100885.28;;;4.39;100.00
49835;BME280;35729;52.090;13.162;2023-02-03T06:45:06;100897.44;;;4.44;100.00
49835;BME280;35729;52.090;13.162;2023-02-03T06:47:38;100879.22;;;4.42;100.00
49835;BME280;35729;52.090;13.162;2023-02-03T06:50:11;100887.91;;;4.46;100.00
49835;BME280;35729;52.090;13.162;2023-02-03T06:52:48;100891.41;;;4.52;100.00
49835;BME280;35729;52.090;13.162;2023-02-03T06:55:24;100877.59;;;4.55;100.00
49835;BME280;35729;52.090;13.162;2023-02-03T06:57:52;100875.00;;;4.58;100.00
49835;BME280;35729;52.090;13.162;2023-02-03T07:00:21;100881.09;;;4.63;100.00
49835;BME280;35729;52.090;13.162;2023-02-03T07:02:52;100866.34;;;4.62;100.00
49835;BME280;35729;52.090;13.162;2023-02-03T07:05:25;100868.13;;;4.71;100.00
49835;BME280;35729;52.090;13.162;2023-02-03T07:07:54;100869.84;;;4.73;100.00
49835;BME280;35729;52.090;13.162;2023-02-03T07:10:23;100874.22;;;4.79;100.00
49835;BME280;35729;52.090;13.162;2023-02-03T07:12:52;100862.13;;;4.84;100.00
49835;BME280;35729;52.090;13.162;2023-02-03T07:15:20;100859.50;;;4.87;100.00
49835;BME280;35729;52.090;13.162;2023-02-03T07:17:49;100865.59;;;4.91;100.00
49835;BME280;35729;52.090;13.162;2023-02-03T07:20:20;100854.34;;;4.94;100.00
49835;BME280;35729;52.090;13.162;2023-02-03T07:22:56;100863.03;;;4.94;100.00
49835;BME280;35729;52.090;13.162;2023-02-03T07:25:25;100868.22;;;5.00;100.00
49835;BME280;35729;52.090;13.162;2023-02-03T07:27:54;100853.50;;;4.99;100.00
49835;BME280;35729;52.090;13.162;2023-02-03T07:30:22;100851.78;;;5.06;100.00
49835;BME280;35729;52.090;13.162;2023-02-03T07:32:52;100843.97;;;5.08;100.00
49835;BME280;35729;52.090;13.162;2023-02-03T07:35:20;100839.66;;;5.11;100.00
49835;BME280;35729;52.090;13.162;2023-02-03T07:37:50;100833.56;;;5.09;100.00
49835;BME280;35729;52.090;13.162;2023-02-03T07:40:21;100827.53;;;5.16;100.00
49835;BME280;35729;52.090;13.162;2023-02-03T07:42:49;100815.41;;;5.17;100.00
49835;BME280;35729;52.090;13.162;2023-02-03T07:45:18;100811.94;;;5.19;100.00
49835;BME280;35729;52.090;13.162;2023-02-03T07:47:49;100811.94;;;5.22;100.00
49835;BME280;35729;52.090;13.162;2023-02-03T07:50:17;100810.22;;;5.25;100.00
49835;BME280;35729;52.090;13.162;2023-02-03T07:52:49;100803.25;;;5.27;100.00
49835;BME280;35729;52.090;13.162;2023-02-03T07:55:21;100798.06;;;5.27;100.00
49835;BME280;35729;52.090;13.162;2023-02-03T07:57:50;100791.13;;;5.29;100.00
49835;BME280;35729;52.090;13.162;2023-02-03T08:00:20;100788.53;;;5.30;100.00
49835;BME280;35729;52.090;13.162;2023-02-03T08:02:49;100776.41;;;5.32;100.00
49835;BME280;35729;52.090;13.162;2023-02-03T08:05:18;100778.13;;;5.33;100.00
49835;BME280;35729;52.090;13.162;2023-02-03T08:07:46;100775.53;;;5.35;100.00
49835;BME280;35729;52.090;13.162;2023-02-03T08:10:15;100776.38;;;5.35;100.00
49835;BME280;35729;52.090;13.162;2023-02-03T08:12:46;100767.72;;;5.36;100.00
49835;BME280;35729;52.090;13.162;2023-02-03T08:15:15;100774.66;;;5.37;100.00
49835;BME280;35729;52.090;13.162;2023-02-03T08:17:43;100767.69;;;5.39;100.00
49835;BME280;35729;52.090;13.162;2023-02-03T08:20:12;100759.03;;;5.41;100.00
49835;BME280;35729;52.090;13.162;2023-02-03T08:22:41;100750.38;;;5.42;100.00
49835;BME280;35729;52.090;13.162;2023-02-03T08:25:10;100741.69;;;5.43;100.00
49835;BME280;35729;52.090;13.162;2023-02-03T08:27:39;100729.53;;;5.43;100.00
49835;BME280;35729;52.090;13.162;2023-02-03T08:30:12;100729.56;;;5.45;100.00
49835;BME280;35729;52.090;13.162;2023-02-03T08:32:41;100733.00;;;5.47;100.00
49835;BME280;35729;52.090;13.162;2023-02-03T08:35:09;100719.13;;;5.48;100.00
49835;BME280;35729;52.090;13.162;2023-02-03T08:37:38;100720.00;;;5.48;100.00
49835;BME280;35729;52.090;13.162;2023-02-03T08:40:08;100726.94;;;5.49;100.00
49835;BME280;35729;52.090;13.162;2023-02-03T08:42:36;100708.72;;;5.51;100.00
49835;BME280;35729;52.090;13.162;2023-02-03T08:45:06;100713.06;;;5.53;100.00
49835;BME280;35729;52.090;13.162;2023-02-03T08:47:37;100700.91;;;5.49;100.00
49835;BME280;35729;52.090;13.162;2023-02-03T08:50:08;100704.38;;;5.54;100.00
49835;BME280;35729;52.090;13.162;2023-02-03T08:52:38;100700.06;;;5.55;100.00
49835;BME280;35729;52.090;13.162;2023-02-03T08:55:07;100710.44;;;5.58;100.00
49835;BME280;35729;52.090;13.162;2023-02-03T08:57:36;100718.25;;;5.60;100.00
49835;BME280;35729;52.090;13.162;2023-02-03T09:00:08;100703.50;;;5.60;100.00
49835;BME280;35729;52.090;13.162;2023-02-03T09:02:40;100709.56;;;5.61;100.00
49835;BME280;35729;52.090;13.162;2023-02-03T09:05:09;100701.75;;;5.62;100.00
49835;BME280;35729;52.090;13.162;2023-02-03T09:07:38;100693.09;;;5.63;100.00
49835;BME280;35729;52.090;13.162;2023-02-03T09:10:07;100684.41;;;5.64;100.00
49835;BME280;35729;52.090;13.162;2023-02-03T09:12:36;100680.94;;;5.65;100.00
49835;BME280;35729;52.090;13.162;2023-02-03T09:15:05;100661.84;;;5.66;100.00
49835;BME280;35729;52.090;13.162;2023-02-03T09:17:34;100660.09;;;5.67;100.00
49835;BME280;35729;52.090;13.162;2023-02-03T09:20:06;100667.03;;;5.69;100.00
49835;BME280;35729;52.090;13.162;2023-02-03T09:22:37;100664.44;;;5.69;100.00
49835;BME280;35729;52.090;13.162;2023-02-03T09:25:06;100667.03;;;5.71;100.00
49835;BME280;35729;52.090;13.162;2023-02-03T09:27:35;100659.25;;;5.73;100.00
49835;BME280;35729;52.090;13.162;2023-02-03T09:30:05;100654.88;;;5.73;100.00
49835;BME280;35729;52.090;13.162;2023-02-03T09:32:33;100649.66;;;5.75;100.00
49835;BME280;35729;52.090;13.162;2023-02-03T09:35:05;100664.41;;;5.76;100.00
49835;BME280;35729;52.090;13.162;2023-02-03T09:37:33;100641.00;;;5.79;100.00
49835;BME280;35729;52.090;13.162;2023-02-03T09:40:03;100631.44;;;5.79;100.00
49835;BME280;35729;52.090;13.162;2023-02-03T09:43:17;100641.84;;;5.81;100.00
49835;BME280;35729;52.090;13.162;2023-02-03T09:45:50;100638.38;;;5.77;100.00
49835;BME280;35729;52.090;13.162;2023-02-03T09:48:21;100626.19;;;5.82;100.00
49835;BME280;35729;52.090;13.162;2023-02-03T09:50:54;100613.19;;;5.84;100.00
49835;BME280;35729;52.090;13.162;2023-02-03T09:53:33;100608.84;;;5.86;100.00
49835;BME280;35729;52.090;13.162;2023-02-03T09:56:19;100605.38;;;5.87;100.00
49835;BME280;35729;52.090;13.162;2023-02-03T09:58:50;100605.34;;;5.90;100.00
49835;BME280;35729;52.090;13.162;2023-02-03T10:01:19;100607.09;;;5.93;100.00
49835;BME280;35729;52.090;13.162;2023-02-03T10:03:53;100604.47;;;5.96;100.00
49835;BME280;35729;52.090;13.162;2023-02-03T10:06:32;100607.94;;;5.99;100.00
49835;BME280;35729;52.090;13.162;2023-02-03T10:09:24;100617.47;;;6.02;100.00
49835;BME280;35729;52.090;13.162;2023-02-03T10:12:24;100598.34;;;6.08;100.00
49835;BME280;35729;52.090;13.162;2023-02-03T10:15:04;100580.09;;;6.11;100.00
49835;BME280;35729;52.090;13.162;2023-02-03T10:17:39;100581.84;;;6.09;100.00
49835;BME280;35729;52.090;13.162;2023-02-03T10:20:14;100570.53;;;6.16;100.00
49835;BME280;35729;52.090;13.162;2023-02-03T10:22:52;100594.81;;;6.19;100.00
49835;BME280;35729;52.090;13.162;2023-02-03T10:25:26;100578.31;;;6.22;100.00
49835;BME280;35729;52.090;13.162;2023-02-03T10:28:02;100578.25;;;6.25;100.00
49835;BME280;35729;52.090;13.162;2023-02-03T10:30:38;100557.41;;;6.25;100.00
49835;BME280;35729;52.090;13.162;2023-02-03T10:33:11;100556.56;;;6.29;100.00
49835;BME280;35729;52.090;13.162;2023-02-03T10:35:49;100542.63;;;6.32;100.00
49835;BME280;35729;52.090;13.162;2023-02-03T10:38:32;100528.72;;;6.34;100.00
49835;BME280;35729;52.090;13.162;2023-02-03T10:41:03;100522.63;;;6.37;100.00
49835;BME280;35729;52.090;13.162;2023-02-03T10:43:32;100526.94;;;6.40;100.00
49835;BME280;35729;52.090;13.162;2023-02-03T10:46:18;100470.44;;;6.45;100.00
49835;BME280;35729;52.090;13.162;2023-02-03T10:48:47;100506.00;;;6.49;100.00
49835;BME280;35729;52.090;13.162;2023-02-03T10:51:20;100490.31;;;6.52;100.00
49835;BME280;35729;52.090;13.162;2023-02-03T10:53:52;100461.63;;;6.57;100.00
49835;BME280;35729;52.090;13.162;2023-02-03T10:56:24;100472.84;;;6.62;100.00
49835;BME280;35729;52.090;13.162;2023-02-03T10:58:55;100468.50;;;6.64;100.00
49835;BME280;35729;52.090;13.162;2023-02-03T11:01:26;100496.28;;;6.66;100.00
49835;BME280;35729;52.090;13.162;2023-02-03T11:03:57;100492.81;;;6.67;100.00
49835;BME280;35729;52.090;13.162;2023-02-03T11:06:28;100497.97;;;6.71;100.00
49835;BME280;35729;52.090;13.162;2023-02-03T11:08:59;100486.66;;;6.72;100.00
49835;BME280;35729;52.090;13.162;2023-02-03T11:11:29;100490.13;;;6.72;100.00
49835;BME280;35729;52.090;13.162;2023-02-03T11:14:15;100479.72;;;6.74;100.00
49835;BME280;35729;52.090;13.162;2023-02-03T11:16:44;100506.63;;;6.76;100.00
49835;BME280;35729;52.090;13.162;2023-02-03T11:19:15;100476.19;;;6.75;100.00
49835;BME280;35729;52.090;13.162;2023-02-03T11:21:46;100498.75;;;6.80;100.00
49835;BME280;35729;52.090;13.162;2023-02-03T11:24:21;100522.19;;;6.82;100.00
49835;BME280;35729;52.090;13.162;2023-02-03T11:26:55;100593.50;;;6.82;100.00
49835;BME280;35729;52.090;13.162;2023-02-03T11:29:26;100571.03;;;6.67;100.00
49835;BME280;35729;52.090;13.162;2023-02-03T11:31:57;100602.47;;;6.46;93.05
49835;BME280;35729;52.090;13.162;2023-02-03T11:34:28;100579.19;;;6.18;93.77
49835;BME280;35729;52.090;13.162;2023-02-03T11:37:22;100600.97;;;6.05;95.49
49835;BME280;35729;52.090;13.162;2023-02-03T11:39:56;100625.31;;;5.94;96.17
49835;BME280;35729;52.090;13.162;2023-02-03T11:42:41;100615.75;;;5.88;95.34
49835;BME280;35729;52.090;13.162;2023-02-03T11:45:14;100604.53;;;5.82;96.27
49835;BME280;35729;52.090;13.162;2023-02-03T11:47:44;100613.22;;;5.76;96.13
49835;BME280;35729;52.090;13.162;2023-02-03T11:50:22;100602.81;;;5.78;93.79
49835;BME280;35729;52.090;13.162;2023-02-03T11:56:01;100625.38;;;5.74;95.91
49835;BME280;35729;52.090;13.162;2023-02-03T12:01:52;100614.09;;;5.75;94.55
49835;BME280;35729;52.090;13.162;2023-02-03T12:04:38;100651.41;;;5.76;94.87
49835;BME280;35729;52.090;13.162;2023-02-03T12:07:35;100618.44;;;5.78;93.43
49835;BME280;35729;52.090;13.162;2023-02-03T12:10:15;100626.22;;;5.79;92.38
49835;BME280;35729;52.090;13.162;2023-02-03T12:12:51;100633.19;;;5.79;93.67
49835;BME280;35729;52.090;13.162;2023-02-03T12:15:48;100600.19;;;5.81;90.55
49835;BME280;35729;52.090;13.162;2023-02-03T12:18:30;100617.50;;;5.85;90.73
49835;BME280;35729;52.090;13.162;2023-02-03T12:21:15;100645.28;;;5.89;88.45
49835;BME280;35729;52.090;13.162;2023-02-03T12:23:53;100629.66;;;5.95;86.89
49835;BME280;35729;52.090;13.162;2023-02-03T12:26:33;100620.94;;;6.02;85.61
49835;BME280;35729;52.090;13.162;2023-02-03T12:29:11;100635.69;;;6.05;86.79
49835;BME280;35729;52.090;13.162;2023-02-03T12:31:43;100617.47;;;6.07;85.39
49835;BME280;35729;52.090;13.162;2023-02-03T12:34:19;100615.72;;;6.07;86.85
49835;BME280;35729;52.090;13.162;2023-02-03T12:36:55;100616.59;;;6.09;84.87
49835;BME280;35729;52.090;13.162;2023-02-03T12:39:27;100620.91;;;6.09;85.07
49835;BME280;35729;52.090;13.162;2023-02-03T12:41:59;100605.28;;;6.09;85.07
49835;BME280;35729;52.090;13.162;2023-02-03T12:44:43;100611.38;;;6.11;86.06
49835;BME280;35729;52.090;13.162;2023-02-03T12:47:24;100607.88;;;6.12;85.14
49835;BME280;35729;52.090;13.162;2023-02-03T12:49:56;100626.97;;;6.14;83.29
49835;BME280;35729;52.090;13.162;2023-02-03T12:52:32;100576.59;;;6.18;83.60
49835;BME280;35729;52.090;13.162;2023-02-03T12:55:13;100591.34;;;6.21;84.43
49835;BME280;35729;52.090;13.162;2023-02-03T12:57:48;100613.00;;;6.29;84.02
49835;BME280;35729;52.090;13.162;2023-02-03T13:00:29;100592.13;;;6.33;82.05
49835;BME280;35729;52.090;13.162;2023-02-03T13:03:10;100600.72;;;6.45;82.77
49835;BME280;35729;52.090;13.162;2023-02-03T13:05:42;100610.22;;;6.54;82.48
49835;BME280;35729;52.090;13.162;2023-02-03T13:08:18;100615.38;;;6.58;81.36
49835;BME280;35729;52.090;13.162;2023-02-03T13:10:53;100628.38;;;6.64;79.72
49835;BME280;35729;52.090;13.162;2023-02-03T13:13:30;100653.59;;;6.64;81.23
49835;BME280;35729;52.090;13.162;2023-02-03T13:16:06;100729.31;;;6.41;82.44
49835;BME280;35729;52.090;13.162;2023-02-03T13:18:40;100665.22;;;6.04;83.62